sensor_id;sensor_type;location;lat;lon;timestamp;P1;durP1;ratioP1;P2;durP2;ratioP2
10637;SDS011;47007;49.252;8.904;2023-07-29T00:00:31;1.98;;;1.83;;
10637;SDS011;47007;49.252;8.904;2023-07-29T00:01:12;4.72;;;1.70;;
10637;SDS011;47007;49.252;8.904;2023-07-29T00:01:54;1.70;;;1.60;;
10637;SDS011;47007;49.252;8.904;2023-07-29T00:02:36;1.48;;;1.30;;
10637;SDS011;47007;49.252;8.904;2023-07-29T00:03:17;1.48;;;1.48;;
10637;SDS011;47007;49.252;8.904;2023-07-29T00:03:59;1.30;;;1.20;;
10637;SDS011;47007;49.252;8.904;2023-07-29T00:04:41;1.70;;;1.42;;
10637;SDS011;47007;49.252;8.904;2023-07-29T00:05:22;1.80;;;1.38;;
10637;SDS011;47007;49.252;8.904;2023-07-29T00:06:04;1.25;;;1.25;;
10637;SDS011;47007;49.252;8.904;2023-07-29T00:06:46;1.98;;;1.40;;
10637;SDS011;47007;49.252;8.904;2023-07-29T00:07:28;1.65;;;1.35;;
10637;SDS011;47007;49.252;8.904;2023-07-29T00:08:09;1.60;;;1.50;;
10637;SDS011;47007;49.252;8.904;2023-07-29T00:08:51;1.48;;;1.38;;
10637;SDS011;47007;49.252;8.904;2023-07-29T00:09:33;2.00;;;1.63;;
10637;SDS011;47007;49.252;8.904;2023-07-29T00:10:14;1.88;;;1.42;;
10637;SDS011;47007;49.252;8.904;2023-07-29T00:10:56;1.20;;;1.20;;
10637;SDS011;47007;49.252;8.904;2023-07-29T00:11:38;2.17;;;1.63;;
10637;SDS011;47007;49.252;8.904;2023-07-29T00:12:19;1.38;;;1.27;;
10637;SDS011;47007;49.252;8.904;2023-07-29T00:13:01;1.60;;;1.50;;
10637;SDS011;47007;49.252;8.904;2023-07-29T00:13:43;1.88;;;1.70;;
10637;SDS011;47007;49.252;8.904;2023-07-29T00:14:25;1.60;;;1.50;;
10637;SDS011;47007;49.252;8.904;2023-07-29T00:15:07;1.83;;;1.73;;
10637;SDS011;47007;49.252;8.904;2023-07-29T00:15:49;2.38;;;1.70;;
10637;SDS011;47007;49.252;8.904;2023-07-29T00:16:31;1.45;;;1.40;;
10637;SDS011;47007;49.252;8.904;2023-07-29T00:17:13;2.20;;;1.98;;
10637;SDS011;47007;49.252;8.904;2023-07-29T00:17:54;2.10;;;1.88;;
10637;SDS011;47007;49.252;8.904;2023-07-29T00:18:36;2.58;;;1.80;;
10637;SDS011;47007;49.252;8.904;2023-07-29T00:19:18;2.47;;;1.70;;
10637;SDS011;47007;49.252;8.904;2023-07-29T00:20:01;1.30;;;1.20;;
10637;SDS011;47007;49.252;8.904;2023-07-29T00:20:44;1.88;;;1.50;;
10637;SDS011;47007;49.252;8.904;2023-07-29T00:21:25;1.33;;;1.30;;
10637;SDS011;47007;49.252;8.904;2023-07-29T00:22:07;1.35;;;1.33;;
10637;SDS011;47007;49.252;8.904;2023-07-29T00:22:49;1.30;;;1.20;;
10637;SDS011;47007;49.252;8.904;2023-07-29T00:23:34;1.52;;;1.42;;
10637;SDS011;47007;49.252;8.904;2023-07-29T00:24:15;1.48;;;1.38;;
10637;SDS011;47007;49.252;8.904;2023-07-29T00:24:57;1.65;;;1.48;;
10637;SDS011;47007;49.252;8.904;2023-07-29T00:25:40;1.02;;;1.02;;
10637;SDS011;47007;49.252;8.904;2023-07-29T00:26:22;1.58;;;1.33;;
10637;SDS011;47007;49.252;8.904;2023-07-29T00:27:03;1.70;;;1.45;;
10637;SDS011;47007;49.252;8.904;2023-07-29T00:27:45;1.55;;;1.45;;
10637;SDS011;47007;49.252;8.904;2023-07-29T00:28:27;2.38;;;1.63;;
10637;SDS011;47007;49.252;8.904;2023-07-29T00:29:09;2.38;;;1.30;;
10637;SDS011;47007;49.252;8.904;2023-07-29T00:29:51;1.52;;;1.13;;
10637;SDS011;47007;49.252;8.904;2023-07-29T00:30:33;1.20;;;1.13;;
10637;SDS011;47007;49.252;8.904;2023-07-29T00:31:15;1.35;;;1.20;;
10637;SDS011;47007;49.252;8.904;2023-07-29T00:31:56;1.52;;;1.20;;
10637;SDS011;47007;49.252;8.904;2023-07-29T00:32:38;2.15;;;1.25;;
10637;SDS011;47007;49.252;8.904;2023-07-29T00:33:20;3.42;;;1.35;;
10637;SDS011;47007;49.252;8.904;2023-07-29T00:34:02;1.48;;;1.30;;
10637;SDS011;47007;49.252;8.904;2023-07-29T00:34:44;2.42;;;1.27;;
10637;SDS011;47007;49.252;8.904;2023-07-29T00:35:25;0.95;;;0.95;;
10637;SDS011;47007;49.252;8.904;2023-07-29T00:36:08;1.25;;;1.25;;
10637;SDS011;47007;49.252;8.904;2023-07-29T00:36:50;3.70;;;1.00;;
10637;SDS011;47007;49.252;8.904;2023-07-29T00:37:33;1.27;;;1.08;;
10637;SDS011;47007;49.252;8.904;2023-07-29T00:38:14;1.00;;;1.00;;
10637;SDS011;47007;49.252;8.904;2023-07-29T00:38:56;1.20;;;1.20;;
10637;SDS011;47007;49.252;8.904;2023-07-29T00:39:38;1.25;;;1.15;;
10637;SDS011;47007;49.252;8.904;2023-07-29T00:40:21;1.23;;;1.13;;
10637;SDS011;47007;49.252;8.904;2023-07-29T00:41:03;1.10;;;1.10;;
10637;SDS011;47007;49.252;8.904;2023-07-29T00:41:46;1.48;;;1.38;;
10637;SDS011;47007;49.252;8.904;2023-07-29T00:42:28;2.25;;;0.98;;
10637;SDS011;47007;49.252;8.904;2023-07-29T00:43:10;1.17;;;1.05;;
10637;SDS011;47007;49.252;8.904;2023-07-29T00:43:51;1.52;;;1.15;;
10637;SDS011;47007;49.252;8.904;2023-07-29T00:44:33;1.92;;;1.20;;
10637;SDS011;47007;49.252;8.904;2023-07-29T00:45:15;1.88;;;1.70;;
10637;SDS011;47007;49.252;8.904;2023-07-29T00:45:57;1.65;;;1.35;;
10637;SDS011;47007;49.252;8.904;2023-07-29T00:46:39;1.50;;;1.40;;
10637;SDS011;47007;49.252;8.904;2023-07-29T00:47:22;1.05;;;0.95;;
10637;SDS011;47007;49.252;8.904;2023-07-29T00:48:06;0.98;;;0.98;;
10637;SDS011;47007;49.252;8.904;2023-07-29T00:48:48;0.90;;;0.90;;
10637;SDS011;47007;49.252;8.904;2023-07-29T00:49:30;1.25;;;1.10;;
10637;SDS011;47007;49.252;8.904;2023-07-29T00:50:13;2.35;;;1.20;;
10637;SDS011;47007;49.252;8.904;2023-07-29T00:50:56;2.47;;;1.23;;
10637;SDS011;47007;49.252;8.904;2023-07-29T00:51:38;1.95;;;1.00;;
10637;SDS011;47007;49.252;8.904;2023-07-29T00:52:20;1.95;;;1.27;;
10637;SDS011;47007;49.252;8.904;2023-07-29T00:53:02;1.88;;;1.10;;
10637;SDS011;47007;49.252;8.904;2023-07-29T00:53:44;1.38;;;1.25;;
10637;SDS011;47007;49.252;8.904;2023-07-29T00:54:26;2.53;;;1.20;;
10637;SDS011;47007;49.252;8.904;2023-07-29T00:55:08;1.25;;;1.10;;
10637;SDS011;47007;49.252;8.904;2023-07-29T00:55:50;1.05;;;0.93;;
10637;SDS011;47007;49.252;8.904;2023-07-29T00:56:32;2.17;;;0.95;;
10637;SDS011;47007;49.252;8.904;2023-07-29T00:57:14;2.75;;;0.80;;
10637;SDS011;47007;49.252;8.904;2023-07-29T00:57:58;1.23;;;0.80;;
10637;SDS011;47007;49.252;8.904;2023-07-29T00:58:40;1.05;;;1.00;;
10637;SDS011;47007;49.252;8.904;2023-07-29T00:59:22;1.13;;;0.77;;
10637;SDS011;47007;49.252;8.904;2023-07-29T01:00:04;1.55;;;1.15;;
10637;SDS011;47007;49.252;8.904;2023-07-29T01:00:46;1.73;;;1.00;;
10637;SDS011;47007;49.252;8.904;2023-07-29T01:01:28;1.63;;;1.10;;
10637;SDS011;47007;49.252;8.904;2023-07-29T01:02:10;1.05;;;1.02;;
10637;SDS011;47007;49.252;8.904;2023-07-29T01:04:00;1.83;;;1.20;;
10637;SDS011;47007;49.252;8.904;2023-07-29T01:04:41;1.30;;;1.10;;
10637;SDS011;47007;49.252;8.904;2023-07-29T01:05:23;1.88;;;1.30;;
10637;SDS011;47007;49.252;8.904;2023-07-29T01:07:39;1.30;;;1.20;;
10637;SDS011;47007;49.252;8.904;2023-07-29T01:10:39;2.15;;;1.23;;
10637;SDS011;47007;49.252;8.904;2023-07-29T01:15:16;0.80;;;0.80;;
10637;SDS011;47007;49.252;8.904;2023-07-29T01:16:17;1.45;;;1.00;;
10637;SDS011;47007;49.252;8.904;2023-07-29T01:17:03;0.57;;;0.55;;
10637;SDS011;47007;49.252;8.904;2023-07-29T01:17:49;1.05;;;0.90;;
10637;SDS011;47007;49.252;8.904;2023-07-29T01:18:36;4.35;;;1.10;;
10637;SDS011;47007;49.252;8.904;2023-07-29T01:19:26;0.88;;;0.85;;
10637;SDS011;47007;49.252;8.904;2023-07-29T01:20:23;0.77;;;0.77;;
10637;SDS011;47007;49.252;8.904;2023-07-29T01:21:07;0.93;;;0.90;;
10637;SDS011;47007;49.252;8.904;2023-07-29T01:21:51;1.67;;;0.95;;
10637;SDS011;47007;49.252;8.904;2023-07-29T01:22:34;0.70;;;0.70;;
10637;SDS011;47007;49.252;8.904;2023-07-29T01:23:23;3.97;;;1.00;;
10637;SDS011;47007;49.252;8.904;2023-07-29T01:24:12;1.17;;;0.80;;
10637;SDS011;47007;49.252;8.904;2023-07-29T01:24:54;2.22;;;0.70;;
10637;SDS011;47007;49.252;8.904;2023-07-29T01:25:36;3.08;;;0.70;;
10637;SDS011;47007;49.252;8.904;2023-07-29T01:26:19;1.83;;;0.70;;
10637;SDS011;47007;49.252;8.904;2023-07-29T01:27:01;1.88;;;0.80;;
10637;SDS011;47007;49.252;8.904;2023-07-29T01:27:46;0.90;;;0.90;;
10637;SDS011;47007;49.252;8.904;2023-07-29T01:28:28;1.73;;;0.60;;
10637;SDS011;47007;49.252;8.904;2023-07-29T01:29:10;2.55;;;0.63;;
10637;SDS011;47007;49.252;8.904;2023-07-29T01:29:55;0.50;;;0.50;;
10637;SDS011;47007;49.252;8.904;2023-07-29T01:30:39;1.35;;;0.60;;
10637;SDS011;47007;49.252;8.904;2023-07-29T01:31:32;0.50;;;0.50;;
10637;SDS011;47007;49.252;8.904;2023-07-29T01:33:03;2.38;;;1.17;;
10637;SDS011;47007;49.252;8.904;2023-07-29T01:33:42;0.80;;;0.80;;
10637;SDS011;47007;49.252;8.904;2023-07-29T01:34:48;1.92;;;0.73;;
10637;SDS011;47007;49.252;8.904;2023-07-29T01:36:03;0.73;;;0.60;;
10637;SDS011;47007;49.252;8.904;2023-07-29T01:36:44;1.05;;;0.60;;
10637;SDS011;47007;49.252;8.904;2023-07-29T01:37:29;1.05;;;0.60;;
10637;SDS011;47007;49.252;8.904;2023-07-29T01:38:18;2.13;;;0.75;;
10637;SDS011;47007;49.252;8.904;2023-07-29T01:39:02;0.43;;;0.40;;
10637;SDS011;47007;49.252;8.904;2023-07-29T01:39:44;1.65;;;0.95;;
10637;SDS011;47007;49.252;8.904;2023-07-29T01:40:27;2.85;;;0.70;;
10637;SDS011;47007;49.252;8.904;2023-07-29T01:41:10;0.40;;;0.40;;
10637;SDS011;47007;49.252;8.904;2023-07-29T01:41:52;0.52;;;0.52;;
10637;SDS011;47007;49.252;8.904;2023-07-29T01:42:34;1.88;;;0.55;;
10637;SDS011;47007;49.252;8.904;2023-07-29T01:43:16;0.90;;;0.55;;
10637;SDS011;47007;49.252;8.904;2023-07-29T01:44:00;1.15;;;0.60;;
10637;SDS011;47007;49.252;8.904;2023-07-29T01:44:44;0.73;;;0.50;;
10637;SDS011;47007;49.252;8.904;2023-07-29T01:45:26;1.42;;;0.60;;
10637;SDS011;47007;49.252;8.904;2023-07-29T01:46:09;0.57;;;0.47;;
10637;SDS011;47007;49.252;8.904;2023-07-29T01:46:52;0.47;;;0.47;;
10637;SDS011;47007;49.252;8.904;2023-07-29T01:47:34;1.23;;;0.40;;
10637;SDS011;47007;49.252;8.904;2023-07-29T01:48:16;0.60;;;0.60;;
10637;SDS011;47007;49.252;8.904;2023-07-29T01:48:57;0.90;;;0.57;;
10637;SDS011;47007;49.252;8.904;2023-07-29T01:49:39;1.95;;;0.63;;
10637;SDS011;47007;49.252;8.904;2023-07-29T01:50:21;2.72;;;0.60;;
10637;SDS011;47007;49.252;8.904;2023-07-29T01:51:03;1.20;;;0.60;;
10637;SDS011;47007;49.252;8.904;2023-07-29T01:51:44;0.80;;;0.68;;
10637;SDS011;47007;49.252;8.904;2023-07-29T01:52:26;1.75;;;0.60;;
10637;SDS011;47007;49.252;8.904;2023-07-29T01:53:08;0.40;;;0.40;;
10637;SDS011;47007;49.252;8.904;2023-07-29T01:53:49;1.20;;;0.57;;
10637;SDS011;47007;49.252;8.904;2023-07-29T01:54:31;1.30;;;0.50;;
10637;SDS011;47007;49.252;8.904;2023-07-29T01:55:13;0.55;;;0.50;;
10637;SDS011;47007;49.252;8.904;2023-07-29T01:55:55;1.92;;;0.65;;
10637;SDS011;47007;49.252;8.904;2023-07-29T01:56:38;0.70;;;0.52;;
10637;SDS011;47007;49.252;8.904;2023-07-29T01:57:20;0.70;;;0.50;;
10637;SDS011;47007;49.252;8.904;2023-07-29T01:58:02;1.60;;;0.55;;
10637;SDS011;47007;49.252;8.904;2023-07-29T01:58:43;1.35;;;0.50;;
10637;SDS011;47007;49.252;8.904;2023-07-29T01:59:25;0.65;;;0.45;;
10637;SDS011;47007;49.252;8.904;2023-07-29T02:00:07;1.10;;;0.38;;
10637;SDS011;47007;49.252;8.904;2023-07-29T02:00:55;0.55;;;0.40;;
10637;SDS011;47007;49.252;8.904;2023-07-29T02:01:37;1.23;;;0.40;;
10637;SDS011;47007;49.252;8.904;2023-07-29T02:02:18;0.40;;;0.40;;
10637;SDS011;47007;49.252;8.904;2023-07-29T02:03:00;0.70;;;0.50;;
10637;SDS011;47007;49.252;8.904;2023-07-29T02:03:42;0.45;;;0.45;;
10637;SDS011;47007;49.252;8.904;2023-07-29T02:04:24;0.63;;;0.47;;
10637;SDS011;47007;49.252;8.904;2023-07-29T02:05:05;1.80;;;0.50;;
10637;SDS011;47007;49.252;8.904;2023-07-29T02:05:47;2.05;;;0.50;;
10637;SDS011;47007;49.252;8.904;2023-07-29T02:06:29;1.02;;;0.40;;
10637;SDS011;47007;49.252;8.904;2023-07-29T02:07:10;0.50;;;0.40;;
10637;SDS011;47007;49.252;8.904;2023-07-29T02:07:52;0.52;;;0.50;;
10637;SDS011;47007;49.252;8.904;2023-07-29T02:08:34;0.93;;;0.80;;
10637;SDS011;47007;49.252;8.904;2023-07-29T02:09:15;0.93;;;0.47;;
10637;SDS011;47007;49.252;8.904;2023-07-29T02:09:57;3.17;;;0.60;;
10637;SDS011;47007;49.252;8.904;2023-07-29T02:10:40;0.63;;;0.40;;
10637;SDS011;47007;49.252;8.904;2023-07-29T02:11:22;1.50;;;0.50;;
10637;SDS011;47007;49.252;8.904;2023-07-29T02:12:09;0.68;;;0.60;;
10637;SDS011;47007;49.252;8.904;2023-07-29T02:12:53;0.60;;;0.38;;
10637;SDS011;47007;49.252;8.904;2023-07-29T02:13:35;0.85;;;0.40;;
10637;SDS011;47007;49.252;8.904;2023-07-29T02:14:17;0.55;;;0.55;;
10637;SDS011;47007;49.252;8.904;2023-07-29T02:14:58;2.40;;;0.50;;
10637;SDS011;47007;49.252;8.904;2023-07-29T02:15:40;0.50;;;0.50;;
10637;SDS011;47007;49.252;8.904;2023-07-29T02:16:22;0.95;;;0.60;;
10637;SDS011;47007;49.252;8.904;2023-07-29T02:17:05;2.03;;;0.50;;
10637;SDS011;47007;49.252;8.904;2023-07-29T02:17:46;1.15;;;0.55;;
10637;SDS011;47007;49.252;8.904;2023-07-29T02:18:28;0.45;;;0.45;;
10637;SDS011;47007;49.252;8.904;2023-07-29T02:19:10;1.10;;;0.47;;
10637;SDS011;47007;49.252;8.904;2023-07-29T02:19:52;0.40;;;0.40;;
10637;SDS011;47007;49.252;8.904;2023-07-29T02:20:33;1.77;;;0.60;;
10637;SDS011;47007;49.252;8.904;2023-07-29T02:21:15;0.60;;;0.50;;
10637;SDS011;47007;49.252;8.904;2023-07-29T02:21:57;0.70;;;0.63;;
10637;SDS011;47007;49.252;8.904;2023-07-29T02:22:39;1.48;;;0.50;;
10637;SDS011;47007;49.252;8.904;2023-07-29T02:23:21;1.77;;;0.50;;
10637;SDS011;47007;49.252;8.904;2023-07-29T02:24:03;0.50;;;0.43;;
10637;SDS011;47007;49.252;8.904;2023-07-29T02:24:45;2.65;;;0.60;;
10637;SDS011;47007;49.252;8.904;2023-07-29T02:25:26;2.95;;;0.52;;
10637;SDS011;47007;49.252;8.904;2023-07-29T02:26:08;0.88;;;0.50;;
10637;SDS011;47007;49.252;8.904;2023-07-29T02:26:50;0.90;;;0.50;;
10637;SDS011;47007;49.252;8.904;2023-07-29T02:27:31;1.27;;;0.75;;
10637;SDS011;47007;49.252;8.904;2023-07-29T02:28:14;0.95;;;0.80;;
10637;SDS011;47007;49.252;8.904;2023-07-29T02:28:56;0.63;;;0.40;;
10637;SDS011;47007;49.252;8.904;2023-07-29T02:29:38;0.50;;;0.50;;
10637;SDS011;47007;49.252;8.904;2023-07-29T02:30:20;1.42;;;0.63;;
10637;SDS011;47007;49.252;8.904;2023-07-29T02:31:08;0.65;;;0.60;;
10637;SDS011;47007;49.252;8.904;2023-07-29T02:32:01;0.60;;;0.60;;
10637;SDS011;47007;49.252;8.904;2023-07-29T02:32:42;1.05;;;0.52;;
10637;SDS011;47007;49.252;8.904;2023-07-29T02:33:25;0.40;;;0.40;;
10637;SDS011;47007;49.252;8.904;2023-07-29T02:34:07;2.28;;;1.02;;
10637;SDS011;47007;49.252;8.904;2023-07-29T02:34:48;0.57;;;0.40;;
10637;SDS011;47007;49.252;8.904;2023-07-29T02:35:30;1.05;;;0.60;;
10637;SDS011;47007;49.252;8.904;2023-07-29T02:36:12;1.55;;;0.60;;
10637;SDS011;47007;49.252;8.904;2023-07-29T02:36:55;1.73;;;0.60;;
10637;SDS011;47007;49.252;8.904;2023-07-29T02:37:37;1.02;;;0.60;;
10637;SDS011;47007;49.252;8.904;2023-07-29T02:38:18;0.50;;;0.50;;
10637;SDS011;47007;49.252;8.904;2023-07-29T02:39:00;0.47;;;0.40;;
10637;SDS011;47007;49.252;8.904;2023-07-29T02:39:44;1.60;;;0.63;;
10637;SDS011;47007;49.252;8.904;2023-07-29T02:40:26;0.73;;;0.55;;
10637;SDS011;47007;49.252;8.904;2023-07-29T02:41:09;0.60;;;0.40;;
10637;SDS011;47007;49.252;8.904;2023-07-29T02:41:53;0.55;;;0.55;;
10637;SDS011;47007;49.252;8.904;2023-07-29T02:42:36;0.55;;;0.55;;
10637;SDS011;47007;49.252;8.904;2023-07-29T02:43:18;0.40;;;0.40;;
10637;SDS011;47007;49.252;8.904;2023-07-29T02:44:01;1.20;;;0.40;;
10637;SDS011;47007;49.252;8.904;2023-07-29T02:44:43;0.60;;;0.50;;
10637;SDS011;47007;49.252;8.904;2023-07-29T02:45:24;1.10;;;0.60;;
10637;SDS011;47007;49.252;8.904;2023-07-29T02:46:06;1.27;;;0.40;;
10637;SDS011;47007;49.252;8.904;2023-07-29T02:46:48;1.40;;;0.47;;
10637;SDS011;47007;49.252;8.904;2023-07-29T02:47:29;0.70;;;0.57;;
10637;SDS011;47007;49.252;8.904;2023-07-29T02:48:11;1.42;;;0.60;;
10637;SDS011;47007;49.252;8.904;2023-07-29T02:48:53;0.40;;;0.40;;
10637;SDS011;47007;49.252;8.904;2023-07-29T02:49:35;0.60;;;0.50;;
10637;SDS011;47007;49.252;8.904;2023-07-29T02:50:16;0.77;;;0.60;;
10637;SDS011;47007;49.252;8.904;2023-07-29T02:50:58;2.50;;;0.70;;
10637;SDS011;47007;49.252;8.904;2023-07-29T02:51:40;0.95;;;0.68;;
10637;SDS011;47007;49.252;8.904;2023-07-29T02:52:22;1.33;;;0.60;;
10637;SDS011;47007;49.252;8.904;2023-07-29T02:53:03;0.60;;;0.60;;
10637;SDS011;47007;49.252;8.904;2023-07-29T02:53:45;0.60;;;0.60;;
10637;SDS011;47007;49.252;8.904;2023-07-29T02:54:27;0.55;;;0.50;;
10637;SDS011;47007;49.252;8.904;2023-07-29T02:55:09;2.75;;;0.57;;
10637;SDS011;47007;49.252;8.904;2023-07-29T02:55:51;0.80;;;0.60;;
10637;SDS011;47007;49.252;8.904;2023-07-29T02:56:33;2.38;;;0.60;;
10637;SDS011;47007;49.252;8.904;2023-07-29T02:57:16;0.65;;;0.52;;
10637;SDS011;47007;49.252;8.904;2023-07-29T02:57:58;0.70;;;0.60;;
10637;SDS011;47007;49.252;8.904;2023-07-29T02:58:40;0.70;;;0.70;;
10637;SDS011;47007;49.252;8.904;2023-07-29T02:59:23;1.95;;;0.60;;
10637;SDS011;47007;49.252;8.904;2023-07-29T03:00:04;1.50;;;0.50;;
10637;SDS011;47007;49.252;8.904;2023-07-29T03:00:49;1.85;;;0.55;;
10637;SDS011;47007;49.252;8.904;2023-07-29T03:01:32;0.85;;;0.70;;
10637;SDS011;47007;49.252;8.904;2023-07-29T03:02:14;0.50;;;0.50;;
10637;SDS011;47007;49.252;8.904;2023-07-29T03:02:57;1.63;;;0.50;;
10637;SDS011;47007;49.252;8.904;2023-07-29T03:03:39;0.93;;;0.55;;
10637;SDS011;47007;49.252;8.904;2023-07-29T03:04:21;0.73;;;0.63;;
10637;SDS011;47007;49.252;8.904;2023-07-29T03:05:03;1.05;;;0.65;;
10637;SDS011;47007;49.252;8.904;2023-07-29T03:05:45;0.40;;;0.40;;
10637;SDS011;47007;49.252;8.904;2023-07-29T03:06:27;1.27;;;0.70;;
10637;SDS011;47007;49.252;8.904;2023-07-29T03:07:09;1.20;;;0.63;;
10637;SDS011;47007;49.252;8.904;2023-07-29T03:07:51;0.50;;;0.50;;
10637;SDS011;47007;49.252;8.904;2023-07-29T03:08:32;3.00;;;0.70;;
10637;SDS011;47007;49.252;8.904;2023-07-29T03:09:15;0.52;;;0.47;;
10637;SDS011;47007;49.252;8.904;2023-07-29T03:09:56;1.42;;;0.50;;
10637;SDS011;47007;49.252;8.904;2023-07-29T03:10:38;0.60;;;0.50;;
10637;SDS011;47007;49.252;8.904;2023-07-29T03:11:19;1.15;;;0.60;;
10637;SDS011;47007;49.252;8.904;2023-07-29T03:12:01;2.03;;;0.70;;
10637;SDS011;47007;49.252;8.904;2023-07-29T03:12:43;0.70;;;0.60;;
10637;SDS011;47007;49.252;8.904;2023-07-29T03:13:25;1.95;;;0.70;;
10637;SDS011;47007;49.252;8.904;2023-07-29T03:14:06;1.38;;;0.60;;
10637;SDS011;47007;49.252;8.904;2023-07-29T03:14:48;1.08;;;0.75;;
10637;SDS011;47007;49.252;8.904;2023-07-29T03:15:31;2.05;;;0.80;;
10637;SDS011;47007;49.252;8.904;2023-07-29T03:16:16;1.63;;;0.93;;
10637;SDS011;47007;49.252;8.904;2023-07-29T03:17:05;0.85;;;0.75;;
10637;SDS011;47007;49.252;8.904;2023-07-29T03:17:47;1.25;;;0.90;;
10637;SDS011;47007;49.252;8.904;2023-07-29T03:18:28;1.77;;;0.90;;
10637;SDS011;47007;49.252;8.904;2023-07-29T03:19:10;2.25;;;1.15;;
10637;SDS011;47007;49.252;8.904;2023-07-29T03:19:52;4.10;;;1.20;;
10637;SDS011;47007;49.252;8.904;2023-07-29T03:20:33;1.98;;;1.20;;
10637;SDS011;47007;49.252;8.904;2023-07-29T03:21:15;0.80;;;0.80;;
10637;SDS011;47007;49.252;8.904;2023-07-29T03:21:57;1.35;;;0.73;;
10637;SDS011;47007;49.252;8.904;2023-07-29T03:22:39;2.30;;;1.00;;
10637;SDS011;47007;49.252;8.904;2023-07-29T03:23:20;4.32;;;1.83;;
10637;SDS011;47007;49.252;8.904;2023-07-29T03:24:02;1.48;;;0.88;;
10637;SDS011;47007;49.252;8.904;2023-07-29T03:24:44;3.33;;;1.10;;
10637;SDS011;47007;49.252;8.904;2023-07-29T03:25:26;1.33;;;0.88;;
10637;SDS011;47007;49.252;8.904;2023-07-29T03:26:07;1.10;;;0.90;;
10637;SDS011;47007;49.252;8.904;2023-07-29T03:26:53;2.67;;;1.00;;
10637;SDS011;47007;49.252;8.904;2023-07-29T03:27:34;1.35;;;0.88;;
10637;SDS011;47007;49.252;8.904;2023-07-29T03:28:17;2.60;;;0.98;;
10637;SDS011;47007;49.252;8.904;2023-07-29T03:28:59;1.38;;;0.90;;
10637;SDS011;47007;49.252;8.904;2023-07-29T03:29:41;2.35;;;1.05;;
10637;SDS011;47007;49.252;8.904;2023-07-29T03:30:23;0.98;;;0.82;;
10637;SDS011;47007;49.252;8.904;2023-07-29T03:31:06;1.10;;;0.70;;
10637;SDS011;47007;49.252;8.904;2023-07-29T03:31:48;2.97;;;0.93;;
10637;SDS011;47007;49.252;8.904;2023-07-29T03:32:30;1.40;;;0.68;;
10637;SDS011;47007;49.252;8.904;2023-07-29T03:33:12;1.58;;;0.85;;
10637;SDS011;47007;49.252;8.904;2023-07-29T03:33:53;1.65;;;0.70;;
10637;SDS011;47007;49.252;8.904;2023-07-29T03:34:35;2.10;;;1.15;;
10637;SDS011;47007;49.252;8.904;2023-07-29T03:35:17;1.70;;;0.90;;
10637;SDS011;47007;49.252;8.904;2023-07-29T03:35:59;1.60;;;1.05;;
10637;SDS011;47007;49.252;8.904;2023-07-29T03:36:40;1.63;;;0.80;;
10637;SDS011;47007;49.252;8.904;2023-07-29T03:37:22;1.17;;;0.70;;
10637;SDS011;47007;49.252;8.904;2023-07-29T03:38:04;1.98;;;0.90;;
10637;SDS011;47007;49.252;8.904;2023-07-29T03:38:46;3.20;;;1.05;;
10637;SDS011;47007;49.252;8.904;2023-07-29T03:39:27;0.77;;;0.77;;
10637;SDS011;47007;49.252;8.904;2023-07-29T03:40:09;1.88;;;0.80;;
10637;SDS011;47007;49.252;8.904;2023-07-29T03:40:51;0.95;;;0.95;;
10637;SDS011;47007;49.252;8.904;2023-07-29T03:41:33;1.80;;;0.80;;
10637;SDS011;47007;49.252;8.904;2023-07-29T03:42:14;2.20;;;0.82;;
10637;SDS011;47007;49.252;8.904;2023-07-29T03:42:56;3.17;;;1.02;;
10637;SDS011;47007;49.252;8.904;2023-07-29T03:43:38;1.13;;;0.80;;
10637;SDS011;47007;49.252;8.904;2023-07-29T03:44:19;0.90;;;0.80;;
10637;SDS011;47007;49.252;8.904;2023-07-29T03:45:01;1.23;;;0.73;;
10637;SDS011;47007;49.252;8.904;2023-07-29T03:45:43;0.95;;;0.65;;
10637;SDS011;47007;49.252;8.904;2023-07-29T03:46:25;1.23;;;0.90;;
10637;SDS011;47007;49.252;8.904;2023-07-29T03:47:07;1.27;;;0.80;;
10637;SDS011;47007;49.252;8.904;2023-07-29T03:47:49;0.90;;;0.75;;
10637;SDS011;47007;49.252;8.904;2023-07-29T03:48:31;2.78;;;0.90;;
10637;SDS011;47007;49.252;8.904;2023-07-29T03:49:13;1.15;;;0.70;;
10637;SDS011;47007;49.252;8.904;2023-07-29T03:49:55;1.23;;;0.77;;
10637;SDS011;47007;49.252;8.904;2023-07-29T03:50:37;3.97;;;0.85;;
10637;SDS011;47007;49.252;8.904;2023-07-29T03:51:19;2.33;;;0.88;;
10637;SDS011;47007;49.252;8.904;2023-07-29T03:52:02;2.17;;;0.80;;
10637;SDS011;47007;49.252;8.904;2023-07-29T03:52:44;0.70;;;0.60;;
10637;SDS011;47007;49.252;8.904;2023-07-29T03:53:26;0.80;;;0.70;;
10637;SDS011;47007;49.252;8.904;2023-07-29T03:54:07;1.30;;;0.98;;
10637;SDS011;47007;49.252;8.904;2023-07-29T03:54:49;1.05;;;0.75;;
10637;SDS011;47007;49.252;8.904;2023-07-29T03:55:32;0.98;;;0.80;;
10637;SDS011;47007;49.252;8.904;2023-07-29T03:56:14;1.50;;;0.60;;
10637;SDS011;47007;49.252;8.904;2023-07-29T03:56:55;2.22;;;0.75;;
10637;SDS011;47007;49.252;8.904;2023-07-29T03:57:37;1.20;;;0.82;;
10637;SDS011;47007;49.252;8.904;2023-07-29T03:58:19;1.08;;;0.60;;
10637;SDS011;47007;49.252;8.904;2023-07-29T03:59:04;0.88;;;0.85;;
10637;SDS011;47007;49.252;8.904;2023-07-29T03:59:47;1.08;;;0.70;;
10637;SDS011;47007;49.252;8.904;2023-07-29T04:00:29;1.30;;;0.70;;
10637;SDS011;47007;49.252;8.904;2023-07-29T04:01:10;0.80;;;0.77;;
10637;SDS011;47007;49.252;8.904;2023-07-29T04:01:52;1.00;;;0.70;;
10637;SDS011;47007;49.252;8.904;2023-07-29T04:02:34;0.77;;;0.77;;
10637;SDS011;47007;49.252;8.904;2023-07-29T04:03:19;0.80;;;0.80;;
10637;SDS011;47007;49.252;8.904;2023-07-29T04:04:02;1.85;;;0.70;;
10637;SDS011;47007;49.252;8.904;2023-07-29T04:04:43;4.13;;;0.60;;
10637;SDS011;47007;49.252;8.904;2023-07-29T04:05:29;2.78;;;1.13;;
10637;SDS011;47007;49.252;8.904;2023-07-29T04:06:10;2.13;;;0.50;;
10637;SDS011;47007;49.252;8.904;2023-07-29T04:06:52;0.60;;;0.60;;
10637;SDS011;47007;49.252;8.904;2023-07-29T04:07:34;1.20;;;0.80;;
10637;SDS011;47007;49.252;8.904;2023-07-29T04:08:16;0.80;;;0.77;;
10637;SDS011;47007;49.252;8.904;2023-07-29T04:08:58;1.00;;;1.00;;
10637;SDS011;47007;49.252;8.904;2023-07-29T04:09:40;1.02;;;0.70;;
10637;SDS011;47007;49.252;8.904;2023-07-29T04:10:22;1.42;;;0.80;;
10637;SDS011;47007;49.252;8.904;2023-07-29T04:11:04;0.73;;;0.65;;
10637;SDS011;47007;49.252;8.904;2023-07-29T04:11:46;0.95;;;0.75;;
10637;SDS011;47007;49.252;8.904;2023-07-29T04:12:27;2.17;;;0.70;;
10637;SDS011;47007;49.252;8.904;2023-07-29T04:13:09;0.80;;;0.80;;
10637;SDS011;47007;49.252;8.904;2023-07-29T04:13:51;0.95;;;0.60;;
10637;SDS011;47007;49.252;8.904;2023-07-29T04:14:33;0.80;;;0.80;;
10637;SDS011;47007;49.252;8.904;2023-07-29T04:15:14;0.95;;;0.85;;
10637;SDS011;47007;49.252;8.904;2023-07-29T04:15:56;1.75;;;0.60;;
10637;SDS011;47007;49.252;8.904;2023-07-29T04:16:38;0.90;;;0.60;;
10637;SDS011;47007;49.252;8.904;2023-07-29T04:17:20;1.67;;;0.50;;
10637;SDS011;47007;49.252;8.904;2023-07-29T04:18:02;1.95;;;1.08;;
10637;SDS011;47007;49.252;8.904;2023-07-29T04:18:43;1.15;;;0.80;;
10637;SDS011;47007;49.252;8.904;2023-07-29T04:19:25;2.17;;;1.00;;
10637;SDS011;47007;49.252;8.904;2023-07-29T04:20:07;1.85;;;0.73;;
10637;SDS011;47007;49.252;8.904;2023-07-29T04:20:49;1.55;;;0.80;;
10637;SDS011;47007;49.252;8.904;2023-07-29T04:21:31;0.95;;;0.70;;
10637;SDS011;47007;49.252;8.904;2023-07-29T04:22:14;1.55;;;0.82;;
10637;SDS011;47007;49.252;8.904;2023-07-29T04:22:56;1.52;;;0.57;;
10637;SDS011;47007;49.252;8.904;2023-07-29T04:23:38;1.35;;;0.75;;
10637;SDS011;47007;49.252;8.904;2023-07-29T04:24:21;0.95;;;0.77;;
10637;SDS011;47007;49.252;8.904;2023-07-29T04:25:05;2.15;;;0.60;;
10637;SDS011;47007;49.252;8.904;2023-07-29T04:25:47;0.75;;;0.70;;
10637;SDS011;47007;49.252;8.904;2023-07-29T04:26:29;0.73;;;0.73;;